createdAt,value
2022-10-26T00:01:04.412Z,18.20
2022-10-26T00:03:31.225Z,20.70
2022-10-26T00:06:13.290Z,21.60
2022-10-26T00:08:41.188Z,18.50
2022-10-26T00:11:09.123Z,26.70
2022-10-26T00:13:36.927Z,21.30
2022-10-26T00:16:30.217Z,17.60
2022-10-26T00:18:56.981Z,19.60
2022-10-26T00:21:24.071Z,20.10
2022-10-26T00:23:50.827Z,19.10
2022-10-26T00:26:17.539Z,16.70
2022-10-26T00:28:44.246Z,21.30
2022-10-26T00:31:16.716Z,22.40
2022-10-26T00:33:43.913Z,20.00
2022-10-26T00:36:11.244Z,20.40
2022-10-26T00:38:38.346Z,24.00
2022-10-26T00:41:05.368Z,18.10
2022-10-26T00:43:32.010Z,20.70
2022-10-26T00:46:02.816Z,16.20
2022-10-26T00:48:34.624Z,23.80
2022-10-26T00:51:06.275Z,18.80
2022-10-26T00:53:33.278Z,17.00
2022-10-26T00:56:01.433Z,13.40
2022-10-26T00:58:29.159Z,18.00
2022-10-26T01:00:55.966Z,21.30
2022-10-26T01:03:25.683Z,18.70
2022-10-26T01:05:55.909Z,19.90
2022-10-26T01:08:23.425Z,21.40
2022-10-26T01:10:50.855Z,18.20
2022-10-26T01:13:18.441Z,23.20
2022-10-26T01:16:04.090Z,18.40
2022-10-26T01:18:39.942Z,18.00
2022-10-26T01:21:39.894Z,23.30
2022-10-26T01:24:09.567Z,23.00
2022-10-26T01:26:56.535Z,18.60
2022-10-26T01:29:52.689Z,28.50
2022-10-26T01:32:35.258Z,19.80
2022-10-26T01:35:10.709Z,21.50
2022-10-26T01:37:45.663Z,28.50
2022-10-26T01:40:19.066Z,19.10
2022-10-26T01:42:53.561Z,18.50
2022-10-26T01:45:20.473Z,20.30
2022-10-26T01:47:49.580Z,18.10
2022-10-26T01:50:20.143Z,15.80
2022-10-26T01:52:50.880Z,18.40
2022-10-26T01:55:40.023Z,16.40
2022-10-26T01:58:54.579Z,16.70
2022-10-26T02:01:42.765Z,17.00
2022-10-26T02:04:28.447Z,20.90
2022-10-26T02:07:06.074Z,16.80
2022-10-26T02:09:39.313Z,16.90
2022-10-26T02:12:19.697Z,16.80
2022-10-26T02:14:55.472Z,16.00
2022-10-26T02:17:22.186Z,19.20
2022-10-26T02:19:58.230Z,19.00
2022-10-26T02:22:33.463Z,17.80
2022-10-26T02:25:04.680Z,15.50
2022-10-26T02:27:35.607Z,21.00
2022-10-26T02:30:04.998Z,18.30
2022-10-26T02:32:35.788Z,17.30
2022-10-26T02:35:03.918Z,21.50
2022-10-26T02:37:33.315Z,17.90
2022-10-26T02:40:03.209Z,18.40
2022-10-26T02:42:30.584Z,16.60
2022-10-26T02:45:04.166Z,13.70
2022-10-26T02:47:31.473Z,16.20
2022-10-26T02:49:58.421Z,13.10
2022-10-26T02:52:40.439Z,13.80
2022-10-26T02:55:24.406Z,15.10
2022-10-26T02:58:04.662Z,17.40
2022-10-26T03:00:32.319Z,19.80
2022-10-26T03:02:59.932Z,17.70
2022-10-26T03:05:29.027Z,17.00
2022-10-26T03:07:56.218Z,15.80
2022-10-26T03:10:23.238Z,22.80
2022-10-26T03:12:50.205Z,18.30
2022-10-26T03:15:17.224Z,17.60
2022-10-26T03:17:44.095Z,16.70
2022-10-26T03:20:11.865Z,16.70
2022-10-26T03:22:38.832Z,16.00
2022-10-26T03:25:06.167Z,16.10
2022-10-26T03:27:32.967Z,15.00
2022-10-26T03:29:59.633Z,22.30
2022-10-26T03:32:26.239Z,14.50
2022-10-26T03:34:53.028Z,11.80
2022-10-26T03:37:19.723Z,15.50
2022-10-26T03:39:46.376Z,12.90
2022-10-26T03:42:13.124Z,15.60
2022-10-26T03:44:39.825Z,18.00
2022-10-26T03:47:06.607Z,15.20
2022-10-26T03:49:33.336Z,17.90
2022-10-26T03:51:59.987Z,20.20
2022-10-26T03:54:26.682Z,21.80
2022-10-26T03:56:55.215Z,17.30
2022-10-26T03:59:22.287Z,15.90
2022-10-26T04:01:51.633Z,20.50
2022-10-26T04:04:21.175Z,15.70
2022-10-26T04:06:48.067Z,16.80
2022-10-26T04:09:14.756Z,15.90
2022-10-26T04:11:41.439Z,17.80
2022-10-26T04:14:08.149Z,15.70
2022-10-26T04:16:34.845Z,14.90
2022-10-26T04:19:01.806Z,19.40
2022-10-26T04:21:28.526Z,16.50
2022-10-26T04:23:55.160Z,19.30
2022-10-26T04:26:21.972Z,16.00
2022-10-26T04:28:48.641Z,14.70
2022-10-26T04:31:15.299Z,17.40
2022-10-26T04:33:42.082Z,16.30
2022-10-26T04:36:08.896Z,17.00
2022-10-26T04:38:35.539Z,20.30
2022-10-26T04:41:02.241Z,16.40
2022-10-26T04:43:29.028Z,23.20
2022-10-26T04:45:59.138Z,18.70
2022-10-26T04:51:01.461Z,16.50
2022-10-26T04:53:28.789Z,19.60
2022-10-26T04:56:00.301Z,14.70
2022-10-26T04:58:31.096Z,22.80
2022-10-26T05:00:57.905Z,17.70
2022-10-26T05:03:24.671Z,17.40
2022-10-26T05:05:51.382Z,18.20
2022-10-26T05:08:18.004Z,18.30
2022-10-26T05:10:50.176Z,24.90
2022-10-26T05:13:17.150Z,15.70
2022-10-26T05:15:43.899Z,17.40
2022-10-26T05:18:10.597Z,19.80
2022-10-26T05:20:37.770Z,22.10
2022-10-26T05:23:10.735Z,16.10
2022-10-26T05:25:38.455Z,19.60
2022-10-26T05:28:09.722Z,19.60
2022-10-26T05:30:36.492Z,20.90
2022-10-26T05:33:03.598Z,18.20
2022-10-26T05:35:31.516Z,21.90
2022-10-26T05:37:58.508Z,21.10
2022-10-26T05:40:25.857Z,24.70
2022-10-26T05:42:53.065Z,19.60
2022-10-26T05:45:20.311Z,21.70
2022-10-26T05:47:47.516Z,19.30
2022-10-26T05:50:14.744Z,21.60
2022-10-26T05:52:47.285Z,20.70
2022-10-26T05:55:16.445Z,24.20
2022-10-26T05:57:44.154Z,21.70
2022-10-26T06:00:20.687Z,20.00
2022-10-26T06:03:12.496Z,24.00
2022-10-26T06:05:52.773Z,30.00
2022-10-26T06:08:21.239Z,58.10
2022-10-26T06:10:49.034Z,27.80
2022-10-26T06:13:16.788Z,23.90
2022-10-26T06:16:01.914Z,28.90
2022-10-26T06:18:59.549Z,27.50
2022-10-26T06:21:31.409Z,26.20
2022-10-26T06:24:09.173Z,22.70
2022-10-26T06:26:41.756Z,26.00
2022-10-26T06:29:30.395Z,26.90
2022-10-26T06:31:57.157Z,29.80
2022-10-26T06:34:29.689Z,28.70
2022-10-26T06:36:58.567Z,30.80
2022-10-26T06:39:29.938Z,33.00
2022-10-26T06:41:57.662Z,26.30
2022-10-26T06:44:24.756Z,27.20
2022-10-26T06:47:06.066Z,25.90
2022-10-26T06:49:40.109Z,24.70
2022-10-26T06:52:29.762Z,23.90
2022-10-26T06:54:56.923Z,23.00
2022-10-26T06:57:27.106Z,21.90
2022-10-26T06:59:53.950Z,18.80
2022-10-26T07:02:21.411Z,21.20
2022-10-26T07:04:48.581Z,27.80
2022-10-26T07:07:19.385Z,27.40
2022-10-26T07:09:46.186Z,22.00
2022-10-26T07:12:13.200Z,22.90
2022-10-26T07:14:39.913Z,27.70
2022-10-26T07:17:07.304Z,22.90
2022-10-26T07:19:33.991Z,22.70
2022-10-26T07:22:01.385Z,24.50
2022-10-26T07:24:31.529Z,21.30
2022-10-26T07:26:59.305Z,21.00
2022-10-26T07:29:27.527Z,25.00
2022-10-26T08:02:45.358Z,24.90
2022-10-26T08:05:12.116Z,21.80
2022-10-26T08:07:44.494Z,24.20
2022-10-26T08:10:12.183Z,23.10
2022-10-26T08:12:39.020Z,19.20
2022-10-26T08:15:06.641Z,21.70
2022-10-26T08:17:33.561Z,17.60
2022-10-26T08:20:04.222Z,19.50
2022-10-26T08:22:31.064Z,22.70
2022-10-26T08:24:58.144Z,20.30
2022-10-26T08:27:25.271Z,21.00
2022-10-26T08:29:52.030Z,19.40
2022-10-26T08:32:18.904Z,23.60
2022-10-26T08:34:45.636Z,24.70
2022-10-26T08:37:12.444Z,25.30
2022-10-26T08:39:39.216Z,22.30
2022-10-26T08:42:23.198Z,20.00
2022-10-26T08:44:58.674Z,22.20
2022-10-26T08:47:43.386Z,25.00
2022-10-26T08:50:21.900Z,21.70
2022-10-26T08:53:15.001Z,25.70
2022-10-26T08:55:56.938Z,26.60
2022-10-26T08:58:32.339Z,19.60
2022-10-26T09:00:59.701Z,20.30
2022-10-26T09:03:26.420Z,19.90
2022-10-26T09:06:08.539Z,19.50
2022-10-26T09:08:59.026Z,19.60
2022-10-26T09:11:25.702Z,20.90
2022-10-26T09:14:11.746Z,19.00
2022-10-26T09:16:56.215Z,22.80
2022-10-26T09:19:37.991Z,22.90
2022-10-26T09:22:23.230Z,23.40
2022-10-26T09:24:57.577Z,24.30
2022-10-26T09:27:29.806Z,20.20
2022-10-26T09:30:00.523Z,21.10
2022-10-26T09:32:39.003Z,21.00
2022-10-26T09:35:14.463Z,19.50
2022-10-26T09:37:47.503Z,18.70
2022-10-26T09:40:26.728Z,19.90
2022-10-26T09:43:24.820Z,16.30
2022-10-26T09:45:52.995Z,13.80
2022-10-26T09:48:25.921Z,18.20
2022-10-26T09:50:53.208Z,14.50
2022-10-26T09:53:19.952Z,15.00
2022-10-26T09:55:49.426Z,17.70
2022-10-26T09:58:30.129Z,17.00
2022-10-26T10:00:57.152Z,13.50
2022-10-26T10:03:33.585Z,11.10
2022-10-26T10:06:21.080Z,11.80
2022-10-26T10:09:11.823Z,13.50
2022-10-26T10:11:58.094Z,10.80
2022-10-26T10:14:39.820Z,10.30
2022-10-26T10:17:23.661Z,13.20
2022-10-26T10:19:51.345Z,12.00
2022-10-26T10:22:24.863Z,12.00
2022-10-26T10:25:01.670Z,8.20
2022-10-26T10:27:30.054Z,14.70
2022-10-26T10:30:13.842Z,8.60
2022-10-26T10:32:48.250Z,6.50
2022-10-26T10:35:30.566Z,7.30
2022-10-26T10:37:58.020Z,6.70
2022-10-26T10:40:27.890Z,6.20
2022-10-26T10:43:25.648Z,4.80
2022-10-26T10:45:57.201Z,4.90
2022-10-26T10:48:28.837Z,3.10
2022-10-26T10:51:01.523Z,5.20
2022-10-26T10:53:45.544Z,6.10
2022-10-26T10:56:50.039Z,3.20
2022-10-26T10:59:28.640Z,1.90
2022-10-26T11:02:01.080Z,3.00
2022-10-26T11:04:41.000Z,1.60
2022-10-26T11:07:10.044Z,3.20
2022-10-26T11:09:40.711Z,2.70
2022-10-26T11:12:11.756Z,2.70
2022-10-26T11:14:46.322Z,3.40
2022-10-26T11:17:24.351Z,3.30
2022-10-26T11:20:02.785Z,2.70
2022-10-26T11:22:37.180Z,4.70
2022-10-26T11:25:07.875Z,7.80
2022-10-26T11:27:46.709Z,7.10
2022-10-26T11:30:16.628Z,5.80
2022-10-26T11:33:01.254Z,7.30
2022-10-26T11:35:33.392Z,7.00
2022-10-26T11:38:18.105Z,8.00
2022-10-26T11:41:09.616Z,4.30
2022-10-26T11:44:00.949Z,3.40
2022-10-26T11:46:50.360Z,6.30
2022-10-26T11:49:54.082Z,6.00
2022-10-26T11:52:47.828Z,4.60
2022-10-26T11:55:14.722Z,4.40
2022-10-26T11:57:42.345Z,6.30
2022-10-26T12:00:17.433Z,7.50
2022-10-26T12:02:57.167Z,5.10
2022-10-26T12:05:53.097Z,4.00
2022-10-26T12:08:26.252Z,6.50
2022-10-26T12:13:42.741Z,6.00
2022-10-26T12:16:47.818Z,7.60
2022-10-26T12:19:34.463Z,7.50
2022-10-26T12:22:01.782Z,7.20
2022-10-26T12:24:35.663Z,7.80
2022-10-26T12:27:04.892Z,6.50
2022-10-26T12:29:33.158Z,7.10
2022-10-26T12:31:59.868Z,6.00
2022-10-26T12:34:32.776Z,6.70
2022-10-26T12:37:02.340Z,8.50
2022-10-26T12:39:38.005Z,6.70
2022-10-26T12:42:04.631Z,8.00
2022-10-26T12:44:45.768Z,6.50
2022-10-26T12:47:27.827Z,10.50
2022-10-26T12:50:00.894Z,5.60
2022-10-26T12:52:39.831Z,6.20
2022-10-26T12:55:12.931Z,8.00
2022-10-26T12:58:03.684Z,9.10
2022-10-26T13:00:33.280Z,9.20
2022-10-26T13:03:30.517Z,11.30
2022-10-26T13:06:45.855Z,8.80
2022-10-26T13:09:23.556Z,5.60
2022-10-26T13:11:55.092Z,7.20
2022-10-26T13:14:29.525Z,7.10
2022-10-26T13:16:56.478Z,7.20
2022-10-26T13:19:43.523Z,7.80
2022-10-26T13:22:20.862Z,4.90
2022-10-26T13:24:51.872Z,3.90
2022-10-26T13:27:18.530Z,8.10
2022-10-26T13:30:35.189Z,9.20
2022-10-26T13:33:03.391Z,20.10
2022-10-26T13:35:31.775Z,12.60
2022-10-26T13:38:03.017Z,6.80
2022-10-26T13:40:30.423Z,14.00
2022-10-26T13:43:00.561Z,18.40
2022-10-26T13:45:34.721Z,8.70
2022-10-26T13:48:12.145Z,8.80
2022-10-26T13:50:45.708Z,5.10
2022-10-26T13:53:41.525Z,8.10
2022-10-26T13:56:33.323Z,6.40
2022-10-26T13:59:10.681Z,10.00
2022-10-26T14:01:37.659Z,7.30
2022-10-26T14:04:27.837Z,5.70
2022-10-26T14:06:55.053Z,8.50
2022-10-26T14:09:23.042Z,4.40
2022-10-26T14:12:02.062Z,6.90
2022-10-26T14:14:32.318Z,10.30
2022-10-26T14:16:59.936Z,6.00
2022-10-26T14:19:33.412Z,6.30
2022-10-26T14:22:00.717Z,6.50
2022-10-26T14:24:45.650Z,12.60
2022-10-26T14:27:26.618Z,10.00
2022-10-26T14:30:22.015Z,9.30
2022-10-26T14:32:42.171Z,10.00
2022-10-26T14:35:14.065Z,8.10
2022-10-26T14:37:54.467Z,11.30
2022-10-26T14:40:25.387Z,14.70
2022-10-26T14:43:00.780Z,13.00
2022-10-26T14:45:49.365Z,14.40
2022-10-26T14:48:31.486Z,17.70
2022-10-26T14:50:59.839Z,24.70
2022-10-26T14:53:35.990Z,24.40
2022-10-26T14:56:05.490Z,19.30
2022-10-26T14:58:34.084Z,21.20
2022-10-26T15:01:22.886Z,11.70
2022-10-26T15:03:54.831Z,11.40
2022-10-26T15:06:27.831Z,14.20
2022-10-26T15:08:59.595Z,11.50
2022-10-26T15:11:34.761Z,38.20
2022-10-26T15:14:03.246Z,23.90
2022-10-26T15:16:40.993Z,15.70
2022-10-26T15:19:15.208Z,18.30
2022-10-26T15:21:48.453Z,26.20
2022-10-26T15:24:21.316Z,25.50
2022-10-26T15:26:48.631Z,27.00
2022-10-26T15:29:38.529Z,29.50
2022-10-26T15:32:18.989Z,38.30
2022-10-26T15:35:20.127Z,24.30
2022-10-26T15:37:47.702Z,20.10
2022-10-26T15:40:15.650Z,16.40
2022-10-26T15:42:45.576Z,19.60
2022-10-26T15:45:25.211Z,17.40
2022-10-26T15:47:54.811Z,14.00
2022-10-26T15:50:24.425Z,13.40
2022-10-26T15:52:58.902Z,18.10
2022-10-26T15:55:25.851Z,13.20
2022-10-26T15:57:53.155Z,14.20
2022-10-26T16:00:20.857Z,21.50
2022-10-26T16:02:47.641Z,20.60
2022-10-26T16:05:16.396Z,21.80
2022-10-26T16:07:46.153Z,23.00
2022-10-26T16:10:17.393Z,21.50
2022-10-26T16:12:44.280Z,26.30
2022-10-26T16:15:17.936Z,26.60
2022-10-26T16:17:45.801Z,30.20
2022-10-26T16:20:30.789Z,29.50
2022-10-26T16:23:00.388Z,24.00
2022-10-26T16:25:27.889Z,25.20
2022-10-26T16:27:55.426Z,32.20
2022-10-26T16:30:24.873Z,32.10
2022-10-26T16:32:55.232Z,31.60
2022-10-26T16:35:22.077Z,28.80
2022-10-26T16:37:49.233Z,28.90
2022-10-26T16:40:16.090Z,31.70
2022-10-26T16:42:45.149Z,33.90
2022-10-26T16:45:13.593Z,31.40
2022-10-26T16:47:41.322Z,26.40
2022-10-26T16:50:11.441Z,22.30
2022-10-26T16:52:39.149Z,24.00
2022-10-26T16:55:10.183Z,21.20
2022-10-26T16:57:37.622Z,20.40
2022-10-26T17:00:09.309Z,21.90
2022-10-26T17:02:36.156Z,16.50
2022-10-26T17:05:06.983Z,18.80
2022-10-26T17:07:35.491Z,18.10
2022-10-26T17:10:02.892Z,17.90
2022-10-26T17:12:30.970Z,14.50
2022-10-26T17:14:59.343Z,18.10
2022-10-26T17:17:27.143Z,18.60
2022-10-26T17:19:54.081Z,24.40
2022-10-26T17:22:21.425Z,19.00
2022-10-26T17:24:49.307Z,16.50
2022-10-26T17:27:19.286Z,20.40
2022-10-26T17:29:52.849Z,15.10
2022-10-26T17:32:20.109Z,20.70
2022-10-26T17:34:47.395Z,19.90
2022-10-26T17:37:14.773Z,20.90
2022-10-26T17:39:41.903Z,17.50
2022-10-26T17:42:09.844Z,21.40
2022-10-26T17:44:39.540Z,25.00
2022-10-26T17:47:07.073Z,22.30
2022-10-26T17:49:36.186Z,22.00
2022-10-26T17:52:04.437Z,22.70
2022-10-26T17:54:31.752Z,19.30
2022-10-26T17:56:59.492Z,21.90
2022-10-26T17:59:26.924Z,24.40
2022-10-26T18:01:53.877Z,20.10
2022-10-26T18:04:22.394Z,19.70
2022-10-26T18:06:50.542Z,19.20
2022-10-26T18:09:17.955Z,17.50
2022-10-26T18:11:45.677Z,23.00
2022-10-26T18:14:14.539Z,20.70
2022-10-26T18:16:41.298Z,20.90
2022-10-26T18:19:08.583Z,17.10
2022-10-26T18:21:39.818Z,16.00
2022-10-26T18:24:08.978Z,15.20
2022-10-26T18:26:36.069Z,15.80
2022-10-26T18:29:04.723Z,16.80
2022-10-26T18:31:33.714Z,14.30
2022-10-26T18:34:03.484Z,15.00
2022-10-26T18:36:33.272Z,14.20
2022-10-26T18:39:01.546Z,17.20
2022-10-26T18:41:29.454Z,16.20
2022-10-26T18:44:00.347Z,16.30
2022-10-26T18:46:30.121Z,19.00
2022-10-26T18:48:59.187Z,15.80
2022-10-26T18:51:31.233Z,18.00
2022-10-26T18:53:58.758Z,17.30
2022-10-26T18:56:28.906Z,20.90
2022-10-26T18:59:01.383Z,23.40
2022-10-26T19:01:32.703Z,24.60
2022-10-26T19:04:05.941Z,28.60
2022-10-26T19:06:45.623Z,26.10
2022-10-26T19:09:13.687Z,26.50
2022-10-26T19:11:43.013Z,31.40
2022-10-26T19:14:11.263Z,21.90
2022-10-26T19:16:47.607Z,21.10
2022-10-26T19:19:18.299Z,22.20
2022-10-26T19:21:47.794Z,20.00
2022-10-26T19:24:17.935Z,22.00
2022-10-26T19:26:45.856Z,23.00
2022-10-26T19:29:16.330Z,21.40
2022-10-26T19:31:45.670Z,20.60
2022-10-26T19:34:15.100Z,22.40
2022-10-26T19:36:45.618Z,24.20
2022-10-26T19:39:14.984Z,22.00
2022-10-26T19:41:41.985Z,25.40
2022-10-26T19:44:11.881Z,26.70
2022-10-26T19:46:40.356Z,25.50
2022-10-26T19:49:08.385Z,29.20
2022-10-26T19:51:35.849Z,33.90
2022-10-26T19:54:06.287Z,39.30
2022-10-26T19:56:35.442Z,39.20
2022-10-26T19:59:02.991Z,33.90
2022-10-26T20:01:30.408Z,35.10
2022-10-26T20:03:57.987Z,32.60
2022-10-26T20:06:25.381Z,32.40
2022-10-26T20:08:52.225Z,36.60
2022-10-26T20:11:19.972Z,33.10
2022-10-26T20:13:48.732Z,39.10
2022-10-26T20:16:18.143Z,34.50
2022-10-26T20:18:48.133Z,35.20
2022-10-26T20:21:17.685Z,32.10
2022-10-26T20:23:45.509Z,32.30
2022-10-26T20:26:19.819Z,34.90
2022-10-26T20:28:51.567Z,29.50
2022-10-26T20:31:20.103Z,30.80
2022-10-26T20:33:51.578Z,31.40
2022-10-26T20:36:18.919Z,34.40
2022-10-26T20:38:46.575Z,32.10
2022-10-26T20:41:13.996Z,41.10
2022-10-26T20:43:41.435Z,31.70
2022-10-26T20:46:27.637Z,32.60
2022-10-26T20:48:54.819Z,30.70
2022-10-26T20:51:37.806Z,25.80
2022-10-26T20:54:15.510Z,27.70
2022-10-26T20:56:42.990Z,22.30
2022-10-26T20:59:28.583Z,15.10
2022-10-26T21:01:55.542Z,16.40
2022-10-26T21:04:22.439Z,13.50
2022-10-26T21:06:49.120Z,18.20
2022-10-26T21:09:15.898Z,14.00
2022-10-26T21:11:43.387Z,17.30
2022-10-26T21:14:10.093Z,18.00
2022-10-26T21:16:37.213Z,14.50
2022-10-26T21:19:05.192Z,16.70
2022-10-26T21:21:31.851Z,17.20
2022-10-26T21:23:58.569Z,15.50
2022-10-26T21:26:25.342Z,14.60
2022-10-26T21:28:52.055Z,20.70
2022-10-26T21:31:21.433Z,16.80
2022-10-26T21:33:48.847Z,20.10
2022-10-26T21:36:16.569Z,16.90
2022-10-26T21:38:45.725Z,17.50
2022-10-26T21:41:17.669Z,18.40
2022-10-26T21:43:48.036Z,21.60
2022-10-26T21:46:16.295Z,19.30
2022-10-26T21:48:43.224Z,21.40
2022-10-26T21:51:18.641Z,21.20
2022-10-26T21:53:45.451Z,23.10
2022-10-26T21:56:21.328Z,23.60
2022-10-26T21:58:48.758Z,24.50
2022-10-26T22:01:22.965Z,27.60
2022-10-26T22:03:49.694Z,25.90
2022-10-26T22:08:47.925Z,22.80
2022-10-26T22:11:20.413Z,19.20
2022-10-26T22:13:48.770Z,19.10
2022-10-26T22:16:25.155Z,19.30
2022-10-26T22:18:54.018Z,17.00
2022-10-26T22:21:22.375Z,19.50
2022-10-26T22:23:49.210Z,17.40
2022-10-26T22:26:18.427Z,16.30
2022-10-26T22:28:47.076Z,17.40
2022-10-26T22:31:16.919Z,17.90
2022-10-26T22:33:44.351Z,17.30
2022-10-26T22:36:14.031Z,15.00
2022-10-26T22:38:41.011Z,15.90
2022-10-26T22:41:08.721Z,19.20
2022-10-26T22:43:35.921Z,19.20
2022-10-26T22:46:16.502Z,16.30
2022-10-26T22:48:45.568Z,19.80
2022-10-26T22:51:19.866Z,19.60
2022-10-26T22:53:47.397Z,19.80
2022-10-26T22:56:14.519Z,24.30
2022-10-26T22:58:41.518Z,23.30
2022-10-26T23:01:14.621Z,21.80
2022-10-26T23:03:41.857Z,20.90
2022-10-26T23:06:17.133Z,18.00
2022-10-26T23:08:44.528Z,18.70
2022-10-26T23:11:14.190Z,18.80
2022-10-26T23:13:41.071Z,19.40
2022-10-26T23:16:10.651Z,17.60
2022-10-26T23:18:37.816Z,17.70
2022-10-26T23:21:06.643Z,18.90
2022-10-26T23:23:33.574Z,18.80
2022-10-26T23:26:07.050Z,20.30
2022-10-26T23:28:35.344Z,18.10
2022-10-26T23:31:02.585Z,17.70
2022-10-26T23:33:29.473Z,12.70
2022-10-26T23:35:57.671Z,13.80
2022-10-26T23:38:25.554Z,13.90
2022-10-26T23:40:54.632Z,14.70
2022-10-26T23:43:21.838Z,14.60
2022-10-26T23:45:48.897Z,14.60
2022-10-26T23:48:16.410Z,17.00
2022-10-26T23:50:44.352Z,18.20
2022-10-26T23:53:12.580Z,18.20
2022-10-26T23:55:40.100Z,17.00
2022-10-26T23:58:07.003Z,13.40
